Weyerhaeuser, Wisconsin
Current Conditions -  °F | °C
As of 8:15 PM on Friday 24 Oct 2014 (Local Time) from KY23 Reporting Station
Overcast Overcast  
Wind Chill: 56°   Ceiling: 600
Heat Index: 56°   Visibility: 7mi
Dew Point: 55°   Wind: 3mph
Humidity: 94%   Direction: 190°S
Pressure: 29.86"   Gusts: NA
Location:  45.42°N, 91.41°W
Report Text: KY23 250115Z AUTO 19003KT 7SM OVC006 14/13 A2986 RMK AO2 T01350126
Loading
Personal Weather Stations






























Interactive Weather Map
Tropical Storm Tracking
New forecast layout! Learn more

10-Day Weather Forecast

Advertisements
Track Severe Weather on mobile